Time;durP1;ratioP1;P1;durP2;ratioP2;P2;SDS_P1;SDS_P2;PMS_P1;PMS_P2;Temp;Humidity;BMP_temperature;BMP_pressure;BME280_temperature;BME280_humidity;BME280_pressure;Samples;Min_cycle;Max_cycle;Signal;HPM_P1;HPM_P2
2024/02/14 00:01:33;;;;;;;1.15;0.50;;;;;;;;;;5022826;28;20111;-63
2024/02/14 00:03:59;;;;;;;0.75;0.50;;;;;;;;;;5023506;28;20037;-63
2024/02/14 00:06:24;;;;;;;1.15;0.63;;;;;;;;;;5023608;28;20029;-63
2024/02/14 00:08:50;;;;;;;0.77;0.50;;;;;;;;;;5023181;28;20856;-66
2024/02/14 00:11:15;;;;;;;1.23;0.70;;;;;;;;;;5023345;28;20148;-63
2024/02/14 00:13:40;;;;;;;1.00;0.50;;;;;;;;;;5022577;28;20080;-64
2024/02/14 00:16:06;;;;;;;1.13;0.65;;;;;;;;;;5018488;28;20047;-63
2024/02/14 00:18:31;;;;;;;1.15;0.68;;;;;;;;;;5019965;28;20038;-63
2024/02/14 00:20:57;;;;;;;1.02;0.70;;;;;;;;;;5021761;28;20037;-63
2024/02/14 00:23:22;;;;;;;0.73;0.50;;;;;;;;;;5021922;28;20036;-64
2024/02/14 00:25:47;;;;;;;1.52;0.90;;;;;;;;;;5022343;28;20120;-62
2024/02/14 00:28:13;;;;;;;0.95;0.50;;;;;;;;;;5023480;28;20037;-62
2024/02/14 00:30:38;;;;;;;1.38;0.60;;;;;;;;;;5020389;28;20080;-63
2024/02/14 00:33:03;;;;;;;1.30;0.65;;;;;;;;;;5019780;28;20037;-64
2024/02/14 00:35:29;;;;;;;0.70;0.50;;;;;;;;;;5021512;28;20496;-63
2024/02/14 00:37:54;;;;;;;0.95;0.50;;;;;;;;;;5021979;28;20052;-64
2024/02/14 00:40:19;;;;;;;1.27;0.57;;;;;;;;;;5021093;28;20045;-64
2024/02/14 00:42:45;;;;;;;1.77;0.52;;;;;;;;;;5022677;28;20037;-64
2024/02/14 00:45:10;;;;;;;0.98;0.60;;;;;;;;;;5021775;28;20152;-63
2024/02/14 00:47:35;;;;;;;1.00;0.63;;;;;;;;;;5022412;28;20140;-64
2024/02/14 00:50:01;;;;;;;0.90;0.63;;;;;;;;;;5021595;28;20038;-63
2024/02/14 00:52:27;;;;;;;1.38;0.40;;;;;;;;;;5023294;28;20125;-65
2024/02/14 00:54:52;;;;;;;0.93;0.47;;;;;;;;;;5022963;28;20475;-63
2024/02/14 00:57:19;;;;;;;0.65;0.50;;;;;;;;;;5023102;28;20474;-64
2024/02/14 00:59:44;;;;;;;1.05;0.50;;;;;;;;;;5022869;28;20523;-63
2024/02/14 01:02:09;;;;;;;2.35;0.70;;;;;;;;;;5005509;28;20076;-64
2024/02/14 01:04:37;;;;;;;1.08;0.60;;;;;;;;;;5022464;28;20133;-63
2024/02/14 01:07:03;;;;;;;1.10;0.60;;;;;;;;;;5023773;28;20037;-63
2024/02/14 01:09:28;;;;;;;0.82;0.50;;;;;;;;;;5005042;28;20113;-63
2024/02/14 01:11:54;;;;;;;0.85;0.70;;;;;;;;;;5023292;28;20045;-63
2024/02/14 01:14:19;;;;;;;0.90;0.70;;;;;;;;;;5023713;28;20041;-62
2024/02/14 01:16:44;;;;;;;0.88;0.50;;;;;;;;;;5022333;28;20045;-62
2024/02/14 01:19:10;;;;;;;0.90;0.57;;;;;;;;;;5023152;28;20107;-63
2024/02/14 01:21:35;;;;;;;0.82;0.50;;;;;;;;;;5019838;28;20500;-63
2024/02/14 01:24:00;;;;;;;1.60;0.60;;;;;;;;;;5023781;28;20576;-63
2024/02/14 01:26:26;;;;;;;0.93;0.50;;;;;;;;;;5022779;28;20135;-63
2024/02/14 01:28:51;;;;;;;0.98;0.65;;;;;;;;;;5022786;28;20060;-63
2024/02/14 01:31:16;;;;;;;0.80;0.60;;;;;;;;;;5015835;28;20129;-64
2024/02/14 01:33:42;;;;;;;1.00;0.70;;;;;;;;;;5021240;28;20046;-64
2024/02/14 01:36:07;;;;;;;0.63;0.50;;;;;;;;;;5018961;28;20113;-63
2024/02/14 01:38:35;;;;;;;0.82;0.70;;;;;;;;;;5020619;28;20056;-64
2024/02/14 01:41:02;;;;;;;0.90;0.65;;;;;;;;;;5021085;28;20557;-63
2024/02/14 01:43:27;;;;;;;1.38;0.60;;;;;;;;;;5023095;28;20038;-63
2024/02/14 01:45:53;;;;;;;1.10;0.63;;;;;;;;;;5004614;28;20029;-64
2024/02/14 01:48:18;;;;;;;1.10;0.80;;;;;;;;;;5023667;28;20499;-63
2024/02/14 01:50:44;;;;;;;0.80;0.50;;;;;;;;;;5026095;28;20048;-63
2024/02/14 01:53:09;;;;;;;1.23;0.60;;;;;;;;;;5009954;28;20037;-64
2024/02/14 01:55:34;;;;;;;0.82;0.68;;;;;;;;;;5025000;28;20102;-64
2024/02/14 01:58:00;;;;;;;1.30;0.80;;;;;;;;;;5026170;28;20037;-65
2024/02/14 02:00:25;;;;;;;1.08;0.70;;;;;;;;;;5026119;28;20042;-62
2024/02/14 02:02:50;;;;;;;1.58;0.88;;;;;;;;;;5025501;28;20412;-64
2024/02/14 02:05:16;;;;;;;0.80;0.70;;;;;;;;;;5007733;28;20060;-64
2024/02/14 02:07:43;;;;;;;2.15;0.85;;;;;;;;;;5030046;28;20045;-62
2024/02/14 02:10:10;;;;;;;1.10;0.65;;;;;;;;;;5026683;28;20167;-63
2024/02/14 02:12:38;;;;;;;1.27;0.93;;;;;;;;;;5025458;28;20052;-63
2024/02/14 02:15:04;;;;;;;1.15;0.80;;;;;;;;;;5025936;28;20490;-64
2024/02/14 02:17:29;;;;;;;1.33;0.80;;;;;;;;;;5026141;28;20092;-63
2024/02/14 02:19:55;;;;;;;0.88;0.60;;;;;;;;;;5027173;28;20250;-63
2024/02/14 02:22:20;;;;;;;1.00;0.60;;;;;;;;;;5026462;28;20523;-63
2024/02/14 02:24:47;;;;;;;1.25;0.80;;;;;;;;;;5026349;28;20041;-63
2024/02/14 02:27:13;;;;;;;1.38;0.68;;;;;;;;;;5026607;28;20025;-62
2024/02/14 02:29:39;;;;;;;0.73;0.63;;;;;;;;;;5000250;28;20054;-64
2024/02/14 02:32:06;;;;;;;0.75;0.50;;;;;;;;;;5025213;28;20110;-66
2024/02/14 02:34:31;;;;;;;0.80;0.60;;;;;;;;;;5026158;28;20037;-63
2024/02/14 02:36:57;;;;;;;1.10;0.80;;;;;;;;;;5025970;28;20436;-63
2024/02/14 02:39:22;;;;;;;0.75;0.70;;;;;;;;;;5026407;28;20215;-63
2024/02/14 02:41:49;;;;;;;1.25;0.70;;;;;;;;;;5026656;28;20086;-63
2024/02/14 02:44:14;;;;;;;1.55;0.80;;;;;;;;;;5025253;28;20507;-63
2024/02/14 02:46:40;;;;;;;0.98;0.70;;;;;;;;;;5024842;28;20067;-64
2024/02/14 02:49:05;;;;;;;1.00;0.60;;;;;;;;;;5025862;28;20029;-63
2024/02/14 02:51:31;;;;;;;1.30;0.90;;;;;;;;;;5026053;28;20033;-64
2024/02/14 02:53:57;;;;;;;0.57;0.50;;;;;;;;;;5025928;28;20170;-63
2024/02/14 02:56:26;;;;;;;0.95;0.77;;;;;;;;;;5026171;28;20124;-64
2024/02/14 02:58:53;;;;;;;1.15;0.80;;;;;;;;;;5025594;28;20138;-63
2024/02/14 03:01:19;;;;;;;1.20;0.80;;;;;;;;;;5025449;28;20100;-63
2024/02/14 03:03:44;;;;;;;1.08;0.70;;;;;;;;;;5024624;28;20515;-63
2024/02/14 03:06:09;;;;;;;0.90;0.65;;;;;;;;;;5025776;28;20021;-63
2024/02/14 03:08:35;;;;;;;1.27;0.70;;;;;;;;;;5032321;28;20738;-63
2024/02/14 03:11:06;;;;;;;0.90;0.70;;;;;;;;;;5007797;28;20028;-63
2024/02/14 03:13:31;;;;;;;1.10;0.70;;;;;;;;;;5025431;28;20052;-63
2024/02/14 03:15:58;;;;;;;1.20;0.70;;;;;;;;;;5024671;28;20029;-63
2024/02/14 03:18:23;;;;;;;1.65;0.80;;;;;;;;;;5025546;28;20083;-63
2024/02/14 03:20:49;;;;;;;0.98;0.88;;;;;;;;;;5025330;28;20863;-64
2024/02/14 03:23:15;;;;;;;1.42;0.80;;;;;;;;;;5024585;28;20096;-64
2024/02/14 03:25:40;;;;;;;1.40;0.90;;;;;;;;;;5025631;28;20572;-63
2024/02/14 03:28:08;;;;;;;1.17;0.90;;;;;;;;;;5029062;28;20094;-62
2024/02/14 03:30:36;;;;;;;1.30;1.00;;;;;;;;;;5005004;28;20078;-63
2024/02/14 03:33:02;;;;;;;1.60;0.95;;;;;;;;;;5022777;28;20145;-63
2024/02/14 03:35:28;;;;;;;2.22;0.98;;;;;;;;;;5025307;28;20423;-63
2024/02/14 03:37:53;;;;;;;0.90;0.70;;;;;;;;;;5024437;28;20100;-62
2024/02/14 03:40:20;;;;;;;1.70;1.05;;;;;;;;;;5025480;28;20516;-63
2024/02/14 03:42:45;;;;;;;1.10;0.80;;;;;;;;;;5024171;28;20036;-63
2024/02/14 03:45:11;;;;;;;1.00;0.77;;;;;;;;;;5025179;28;20112;-63
2024/02/14 03:47:42;;;;;;;1.58;0.95;;;;;;;;;;5006823;28;20037;-62
2024/02/14 03:50:08;;;;;;;1.00;0.80;;;;;;;;;;5024749;28;20025;-63
2024/02/14 03:52:33;;;;;;;1.25;0.90;;;;;;;;;;5024746;28;20048;-63
2024/02/14 03:54:59;;;;;;;1.05;0.70;;;;;;;;;;5023815;28;20040;-62
2024/02/14 03:57:25;;;;;;;1.38;1.00;;;;;;;;;;5006981;28;20128;-63
2024/02/14 03:59:50;;;;;;;1.13;0.80;;;;;;;;;;5024832;28;20041;-63
2024/02/14 04:02:16;;;;;;;1.25;0.82;;;;;;;;;;5024931;28;20033;-62
2024/02/14 04:04:41;;;;;;;1.23;0.80;;;;;;;;;;5023915;28;20124;-63
2024/02/14 04:07:08;;;;;;;1.23;0.88;;;;;;;;;;5024134;28;20033;-63
2024/02/14 04:09:33;;;;;;;1.27;0.85;;;;;;;;;;5024650;28;20029;-62
2024/02/14 04:11:59;;;;;;;1.13;0.82;;;;;;;;;;5022898;28;20180;-64
2024/02/14 04:14:25;;;;;;;1.20;1.00;;;;;;;;;;5024142;28;20049;-65
2024/02/14 04:16:50;;;;;;;1.25;0.93;;;;;;;;;;5022499;28;20045;-63
2024/02/14 04:19:17;;;;;;;1.05;0.77;;;;;;;;;;5024285;28;20487;-63
2024/02/14 04:21:42;;;;;;;1.65;0.95;;;;;;;;;;5024810;28;20431;-66
2024/02/14 04:24:08;;;;;;;1.30;1.02;;;;;;;;;;5024858;28;20052;-63
2024/02/14 04:26:34;;;;;;;0.90;0.70;;;;;;;;;;5024869;28;20060;-65
2024/02/14 04:28:59;;;;;;;1.27;1.00;;;;;;;;;;5022401;28;20527;-65
2024/02/14 04:31:26;;;;;;;1.30;0.95;;;;;;;;;;5020553;28;20042;-63
2024/02/14 04:33:53;;;;;;;1.20;0.90;;;;;;;;;;5024177;28;20048;-63
2024/02/14 04:36:19;;;;;;;1.25;1.00;;;;;;;;;;5024673;28;20450;-65
2024/02/14 04:38:45;;;;;;;1.08;0.90;;;;;;;;;;5024557;28;20058;-63
2024/02/14 04:41:10;;;;;;;1.00;0.75;;;;;;;;;;5024579;28;20099;-65
2024/02/14 04:43:35;;;;;;;1.52;0.98;;;;;;;;;;5024660;28;20041;-63
2024/02/14 04:46:01;;;;;;;1.20;0.82;;;;;;;;;;5022755;28;20037;-63
2024/02/14 04:48:26;;;;;;;1.50;0.93;;;;;;;;;;5005947;28;20045;-63
2024/02/14 04:50:52;;;;;;;1.30;0.88;;;;;;;;;;5020227;28;20087;-62
2024/02/14 04:53:19;;;;;;;1.40;1.10;;;;;;;;;;5023760;28;20033;-63
2024/02/14 04:55:44;;;;;;;1.83;1.20;;;;;;;;;;5024150;28;20060;-63
2024/02/14 04:58:10;;;;;;;1.23;0.88;;;;;;;;;;5024167;28;20499;-63
2024/02/14 05:00:35;;;;;;;1.80;1.02;;;;;;;;;;5024009;28;20045;-63
2024/02/14 05:03:01;;;;;;;1.33;0.90;;;;;;;;;;5022611;28;20478;-62
2024/02/14 05:05:26;;;;;;;1.20;0.90;;;;;;;;;;5021877;28;20559;-64
2024/02/14 05:07:51;;;;;;;1.70;1.00;;;;;;;;;;5023644;28;20041;-63
2024/02/14 05:10:17;;;;;;;1.35;0.77;;;;;;;;;;5015522;28;20097;-66
2024/02/14 05:12:42;;;;;;;2.45;1.00;;;;;;;;;;5013102;28;20034;-68
2024/02/14 05:15:09;;;;;;;2.55;1.00;;;;;;;;;;5011401;28;20037;-66
2024/02/14 05:17:35;;;;;;;1.23;1.00;;;;;;;;;;5008806;28;20204;-67
2024/02/14 05:20:00;;;;;;;2.22;1.20;;;;;;;;;;5014215;28;20135;-67
2024/02/14 05:22:26;;;;;;;1.73;1.08;;;;;;;;;;5017625;28;20842;-68
2024/02/14 05:24:51;;;;;;;1.33;1.02;;;;;;;;;;5020244;28;20044;-69
2024/02/14 05:27:16;;;;;;;1.52;1.17;;;;;;;;;;5020763;28;20042;-69
2024/02/14 05:29:42;;;;;;;1.48;1.00;;;;;;;;;;5020728;28;20034;-68
2024/02/14 05:32:09;;;;;;;2.03;1.00;;;;;;;;;;5023144;28;20037;-68
2024/02/14 05:34:34;;;;;;;1.42;1.00;;;;;;;;;;5020163;28;20043;-69
2024/02/14 05:37:00;;;;;;;1.30;0.90;;;;;;;;;;5020225;28;20440;-68
2024/02/14 05:39:25;;;;;;;1.38;0.88;;;;;;;;;;5021115;28;20041;-68
2024/02/14 05:41:51;;;;;;;1.40;1.00;;;;;;;;;;5021851;28;20056;-68
2024/02/14 05:44:16;;;;;;;1.75;0.80;;;;;;;;;;5024744;28;20044;-68
2024/02/14 05:46:41;;;;;;;1.23;0.90;;;;;;;;;;5021978;28;20156;-68
2024/02/14 05:49:07;;;;;;;1.48;1.00;;;;;;;;;;5020300;28;20536;-68
2024/02/14 05:51:32;;;;;;;1.25;0.88;;;;;;;;;;5022474;28;20523;-69
2024/02/14 05:53:58;;;;;;;1.63;1.13;;;;;;;;;;5021249;28;20105;-67
2024/02/14 05:56:23;;;;;;;2.58;1.30;;;;;;;;;;5023020;28;20108;-68
2024/02/14 05:58:48;;;;;;;2.63;1.08;;;;;;;;;;5008419;28;20037;-65
2024/02/14 06:01:14;;;;;;;1.48;0.85;;;;;;;;;;5020026;28;20044;-66
2024/02/14 06:03:41;;;;;;;1.55;1.02;;;;;;;;;;5018520;28;20033;-64
2024/02/14 06:06:06;;;;;;;1.23;0.88;;;;;;;;;;5020634;28;20045;-68
2024/02/14 06:08:31;;;;;;;1.20;0.90;;;;;;;;;;5025449;28;20039;-67
2024/02/14 06:10:57;;;;;;;2.05;1.27;;;;;;;;;;5020813;28;20423;-67
2024/02/14 06:13:22;;;;;;;1.38;1.05;;;;;;;;;;5021013;28;20049;-67
2024/02/14 06:15:47;;;;;;;1.73;1.10;;;;;;;;;;5018520;28;20037;-67
2024/02/14 06:18:13;;;;;;;1.70;1.30;;;;;;;;;;5021061;28;20511;-69
2024/02/14 06:20:39;;;;;;;1.48;1.08;;;;;;;;;;5020906;28;20045;-67
2024/02/14 06:23:04;;;;;;;1.92;1.25;;;;;;;;;;5020847;28;20045;-67
2024/02/14 06:25:29;;;;;;;2.03;1.08;;;;;;;;;;5021087;28;20034;-68
2024/02/14 06:27:55;;;;;;;1.73;1.30;;;;;;;;;;5021043;28;20042;-68
2024/02/14 06:30:20;;;;;;;1.90;1.42;;;;;;;;;;5006405;28;20129;-68
2024/02/14 06:32:49;;;;;;;2.60;1.05;;;;;;;;;;5020088;28;20591;-67
2024/02/14 06:35:18;;;;;;;2.20;1.15;;;;;;;;;;5033327;28;20025;-67
2024/02/14 06:37:45;;;;;;;2.47;1.10;;;;;;;;;;5036477;28;20022;-67
2024/02/14 06:40:11;;;;;;;2.40;1.35;;;;;;;;;;5025283;28;20046;-68
2024/02/14 06:42:36;;;;;;;1.83;1.30;;;;;;;;;;5027856;28;20038;-68
2024/02/14 06:45:01;;;;;;;2.10;1.30;;;;;;;;;;5022702;28;20033;-68
2024/02/14 06:47:29;;;;;;;1.75;1.30;;;;;;;;;;5025018;28;20132;-68
2024/02/14 06:49:56;;;;;;;1.52;1.20;;;;;;;;;;5025007;28;20041;-69
2024/02/14 06:52:21;;;;;;;2.97;1.40;;;;;;;;;;5020877;28;20519;-67
2024/02/14 06:54:47;;;;;;;1.73;1.30;;;;;;;;;;5022176;28;20053;-67
2024/02/14 06:57:13;;;;;;;1.50;1.10;;;;;;;;;;5025040;28;20116;-69
2024/02/14 06:59:39;;;;;;;2.20;1.20;;;;;;;;;;5020047;28;20578;-68
2024/02/14 07:02:05;;;;;;;2.75;1.30;;;;;;;;;;5018297;28;20217;-69
2024/02/14 07:04:32;;;;;;;1.98;1.23;;;;;;;;;;5021977;28;20049;-68
2024/02/14 07:06:57;;;;;;;2.20;1.25;;;;;;;;;;5018468;28;20129;-68
2024/02/14 07:09:23;;;;;;;3.15;1.17;;;;;;;;;;4997026;28;20124;-69
2024/02/14 07:11:50;;;;;;;2.08;1.30;;;;;;;;;;5019180;28;20083;-68
2024/02/14 07:14:16;;;;;;;2.40;1.23;;;;;;;;;;5021613;28;20048;-68
2024/02/14 07:16:41;;;;;;;2.80;1.48;;;;;;;;;;5024877;28;20037;-68
2024/02/14 07:19:07;;;;;;;2.22;1.42;;;;;;;;;;5024886;28;20499;-69
2024/02/14 07:21:33;;;;;;;2.42;1.30;;;;;;;;;;5022184;28;20566;-68
2024/02/14 07:23:58;;;;;;;2.45;1.33;;;;;;;;;;5023918;28;20099;-68
2024/02/14 07:26:23;;;;;;;3.10;1.60;;;;;;;;;;5021517;28;20041;-67
2024/02/14 07:28:49;;;;;;;4.30;1.60;;;;;;;;;;5033074;28;20033;-68
2024/02/14 07:31:14;;;;;;;2.85;1.40;;;;;;;;;;5020321;28;20422;-70
2024/02/14 07:33:40;;;;;;;2.30;1.40;;;;;;;;;;5017472;28;20034;-68
2024/02/14 07:36:05;;;;;;;2.33;1.48;;;;;;;;;;5016011;28;20052;-69
2024/02/14 07:38:30;;;;;;;1.73;1.30;;;;;;;;;;5017443;28;20061;-68
2024/02/14 07:40:56;;;;;;;2.75;1.20;;;;;;;;;;5015847;28;20129;-67
2024/02/14 07:43:21;;;;;;;1.75;1.20;;;;;;;;;;5018381;28;20128;-70
2024/02/14 07:45:48;;;;;;;1.85;1.40;;;;;;;;;;5018544;28;20109;-67
2024/02/14 07:48:13;;;;;;;1.90;1.33;;;;;;;;;;5001124;28;20064;-69
2024/02/14 07:50:38;;;;;;;1.90;1.20;;;;;;;;;;5018229;28;20068;-70
2024/02/14 07:53:04;;;;;;;1.63;1.20;;;;;;;;;;5000282;28;20033;-70
2024/02/14 07:55:29;;;;;;;1.92;1.30;;;;;;;;;;4996532;28;20182;-70
2024/02/14 07:57:54;;;;;;;2.15;1.27;;;;;;;;;;5018824;28;20538;-69
2024/02/14 08:00:22;;;;;;;1.63;1.25;;;;;;;;;;5017447;28;20048;-68
2024/02/14 08:02:51;;;;;;;2.72;1.50;;;;;;;;;;5016757;28;20060;-68
2024/02/14 08:05:16;;;;;;;1.58;1.00;;;;;;;;;;4995548;28;20040;-67
2024/02/14 08:07:41;;;;;;;2.17;1.40;;;;;;;;;;5019314;28;20451;-66
2024/02/14 08:10:07;;;;;;;1.80;1.40;;;;;;;;;;5017903;28;20289;-65
2024/02/14 08:12:33;;;;;;;1.52;1.20;;;;;;;;;;5017158;28;20063;-68
2024/02/14 08:15:02;;;;;;;1.65;1.20;;;;;;;;;;5017224;28;20034;-68
2024/02/14 08:17:28;;;;;;;1.80;1.33;;;;;;;;;;5019922;28;20046;-68
2024/02/14 08:19:53;;;;;;;1.60;1.33;;;;;;;;;;5018022;28;20060;-69
2024/02/14 08:22:18;;;;;;;1.58;1.45;;;;;;;;;;5019207;28;20041;-66
2024/02/14 08:24:44;;;;;;;2.10;1.30;;;;;;;;;;5018852;28;20041;-66
2024/02/14 08:27:09;;;;;;;1.52;1.13;;;;;;;;;;5018062;28;20037;-67
2024/02/14 08:29:35;;;;;;;2.00;1.25;;;;;;;;;;5019614;28;20078;-65
2024/02/14 08:32:00;;;;;;;1.98;1.30;;;;;;;;;;5017957;28;20144;-66
2024/02/14 08:34:26;;;;;;;1.63;1.10;;;;;;;;;;5022170;28;20400;-63
2024/02/14 08:36:51;;;;;;;2.40;1.30;;;;;;;;;;5019856;28;20041;-67
2024/02/14 08:39:17;;;;;;;1.52;1.13;;;;;;;;;;5020666;28;20057;-67
2024/02/14 08:41:44;;;;;;;1.58;1.05;;;;;;;;;;5018250;28;20049;-72
2024/02/14 08:44:10;;;;;;;2.30;1.40;;;;;;;;;;5018558;28;20252;-72
2024/02/14 08:46:35;;;;;;;2.90;1.30;;;;;;;;;;5016813;28;20456;-68
2024/02/14 08:49:01;;;;;;;2.13;1.20;;;;;;;;;;5018312;28;20088;-69
2024/02/14 08:51:27;;;;;;;2.15;1.60;;;;;;;;;;5017583;28;20065;-69
2024/02/14 08:53:55;;;;;;;1.73;1.30;;;;;;;;;;5019086;28;20037;-67
2024/02/14 08:56:21;;;;;;;2.00;1.40;;;;;;;;;;5014189;28;20033;-68
2024/02/14 08:58:47;;;;;;;1.50;1.20;;;;;;;;;;5024077;28;20037;-69
2024/02/14 09:01:12;;;;;;;1.77;1.38;;;;;;;;;;5004066;28;20415;-68
2024/02/14 09:03:38;;;;;;;2.00;1.55;;;;;;;;;;5028343;28;20123;-67
2024/02/14 09:06:04;;;;;;;1.48;1.08;;;;;;;;;;5027695;28;20044;-69
2024/02/14 09:08:30;;;;;;;2.15;1.15;;;;;;;;;;5028166;28;20088;-68
2024/02/14 09:10:56;;;;;;;2.25;1.27;;;;;;;;;;5022078;28;20116;-70
2024/02/14 09:13:21;;;;;;;2.47;1.25;;;;;;;;;;5028324;28;20137;-68
2024/02/14 09:15:48;;;;;;;1.98;1.40;;;;;;;;;;5024402;28;20050;-68
2024/02/14 09:18:15;;;;;;;1.98;1.30;;;;;;;;;;5009487;28;20513;-68
2024/02/14 09:20:40;;;;;;;3.15;1.40;;;;;;;;;;5007209;28;20137;-69
2024/02/14 09:23:06;;;;;;;2.22;1.40;;;;;;;;;;5024101;28;20065;-69
2024/02/14 09:25:31;;;;;;;1.40;1.20;;;;;;;;;;5024830;28;20029;-69
2024/02/14 09:27:57;;;;;;;3.20;1.48;;;;;;;;;;5009282;28;20025;-69
2024/02/14 09:30:22;;;;;;;1.50;1.20;;;;;;;;;;5008949;28;20490;-67
2024/02/14 09:32:47;;;;;;;1.77;1.20;;;;;;;;;;5027233;28;20029;-71
2024/02/14 09:35:13;;;;;;;1.80;1.33;;;;;;;;;;5030926;28;20064;-68
2024/02/14 09:37:38;;;;;;;1.80;1.15;;;;;;;;;;5026745;28;20052;-69
2024/02/14 09:40:04;;;;;;;1.77;1.20;;;;;;;;;;5027580;28;20025;-70
2024/02/14 09:42:35;;;;;;;2.15;1.30;;;;;;;;;;5027401;28;20014;-68
2024/02/14 09:45:01;;;;;;;1.63;1.23;;;;;;;;;;5027639;28;20021;-70
2024/02/14 09:47:27;;;;;;;2.42;1.50;;;;;;;;;;5027122;28;20124;-67
2024/02/14 09:49:52;;;;;;;1.70;1.30;;;;;;;;;;5028060;28;20108;-69
2024/02/14 09:52:19;;;;;;;2.13;1.33;;;;;;;;;;5014133;28;20100;-68
2024/02/14 09:54:44;;;;;;;1.63;1.10;;;;;;;;;;5028637;28;20017;-69
2024/02/14 09:57:10;;;;;;;2.17;1.48;;;;;;;;;;5038024;28;20017;-68
2024/02/14 09:59:35;;;;;;;1.65;1.10;;;;;;;;;;5036076;28;20045;-69
2024/02/14 10:02:01;;;;;;;2.00;1.40;;;;;;;;;;5028061;28;20049;-69
2024/02/14 10:04:26;;;;;;;1.50;1.10;;;;;;;;;;5032029;28;20021;-68
2024/02/14 10:06:51;;;;;;;1.77;1.30;;;;;;;;;;5028270;28;20083;-70
2024/02/14 10:09:20;;;;;;;1.55;1.00;;;;;;;;;;5026475;28;20795;-69
2024/02/14 10:11:46;;;;;;;2.38;1.40;;;;;;;;;;5026350;28;20523;-69
2024/02/14 10:14:12;;;;;;;1.92;1.25;;;;;;;;;;5027180;28;20037;-69
2024/02/14 10:16:38;;;;;;;1.35;1.08;;;;;;;;;;5025751;28;20060;-68
2024/02/14 10:19:03;;;;;;;1.75;1.38;;;;;;;;;;5009215;28;20049;-69
2024/02/14 10:21:29;;;;;;;2.00;1.30;;;;;;;;;;5026707;28;20034;-69
2024/02/14 10:23:57;;;;;;;1.70;1.13;;;;;;;;;;5026565;28;20112;-69
2024/02/14 10:26:23;;;;;;;1.83;1.33;;;;;;;;;;5026541;28;20045;-68
2024/02/14 10:28:50;;;;;;;1.90;1.20;;;;;;;;;;5027318;28;20042;-69
2024/02/14 10:31:15;;;;;;;1.63;1.45;;;;;;;;;;5026053;28;20068;-70
2024/02/14 10:33:41;;;;;;;2.75;1.30;;;;;;;;;;5027206;28;20170;-69
2024/02/14 10:36:07;;;;;;;1.50;1.17;;;;;;;;;;5008965;28;20464;-69
2024/02/14 10:38:33;;;;;;;1.98;1.20;;;;;;;;;;5025888;28;20045;-69
2024/02/14 10:41:00;;;;;;;2.13;1.42;;;;;;;;;;5026326;28;20041;-69
2024/02/14 10:43:25;;;;;;;1.98;1.20;;;;;;;;;;5008714;28;20045;-69
2024/02/14 10:45:50;;;;;;;1.60;1.20;;;;;;;;;;5027058;28;20647;-68
2024/02/14 10:48:16;;;;;;;1.65;1.20;;;;;;;;;;5008684;28;20052;-69
2024/02/14 10:50:42;;;;;;;1.35;1.15;;;;;;;;;;5008951;28;20033;-69
2024/02/14 10:53:10;;;;;;;1.83;1.00;;;;;;;;;;5013579;28;20039;-69
2024/02/14 10:55:36;;;;;;;1.92;1.20;;;;;;;;;;5026733;28;20048;-69
2024/02/14 10:58:01;;;;;;;1.90;1.25;;;;;;;;;;5008523;28;20419;-69
2024/02/14 11:00:26;;;;;;;1.95;1.02;;;;;;;;;;5008379;28;20057;-68
2024/02/14 11:02:51;;;;;;;1.65;1.10;;;;;;;;;;5025479;28;20041;-69
2024/02/14 11:05:18;;;;;;;1.67;1.13;;;;;;;;;;5008888;28;20376;-69
2024/02/14 11:07:47;;;;;;;2.10;1.15;;;;;;;;;;5025906;28;20029;-69
2024/02/14 11:10:15;;;;;;;1.40;0.90;;;;;;;;;;5023987;28;20040;-69
2024/02/14 11:12:40;;;;;;;2.00;1.10;;;;;;;;;;5013569;28;20037;-68
2024/02/14 11:15:30;;;;;;;1.52;1.20;;;;;;;;;;5025947;28;20084;-69
2024/02/14 11:18:03;;;;;;;1.67;1.15;;;;;;;;;;5025474;28;20048;-69
2024/02/14 11:20:32;;;;;;;1.52;1.10;;;;;;;;;;5026045;28;20420;-69
2024/02/14 11:22:59;;;;;;;1.92;1.30;;;;;;;;;;5023833;28;20041;-69
2024/02/14 11:25:31;;;;;;;1.45;1.10;;;;;;;;;;5025261;28;20551;-69
2024/02/14 11:27:57;;;;;;;1.92;1.30;;;;;;;;;;5025434;28;20115;-69
2024/02/14 11:30:29;;;;;;;1.65;1.15;;;;;;;;;;5025880;28;20124;-69
2024/02/14 11:32:54;;;;;;;2.00;1.23;;;;;;;;;;5025444;28;20492;-69
2024/02/14 11:35:19;;;;;;;1.52;1.35;;;;;;;;;;5025645;28;20081;-69
2024/02/14 11:37:47;;;;;;;1.80;1.23;;;;;;;;;;5007270;28;20041;-69
2024/02/14 11:40:13;;;;;;;1.58;1.30;;;;;;;;;;5007465;28;20435;-69
2024/02/14 11:42:38;;;;;;;1.70;1.23;;;;;;;;;;5025404;28;20037;-69
2024/02/14 11:45:04;;;;;;;1.52;1.13;;;;;;;;;;5025147;28;20135;-69
2024/02/14 11:47:29;;;;;;;1.42;1.13;;;;;;;;;;5024830;28;20038;-69
2024/02/14 11:49:55;;;;;;;1.90;1.13;;;;;;;;;;5025659;28;20037;-69
2024/02/14 11:52:20;;;;;;;1.77;1.38;;;;;;;;;;5025211;28;20048;-69
2024/02/14 11:54:48;;;;;;;1.52;1.23;;;;;;;;;;5025204;28;20554;-68
2024/02/14 11:57:16;;;;;;;1.67;1.38;;;;;;;;;;5025625;28;20177;-68
2024/02/14 11:59:41;;;;;;;1.75;1.33;;;;;;;;;;5025095;28;20045;-68
2024/02/14 12:02:07;;;;;;;1.50;1.10;;;;;;;;;;5025066;28;20037;-68
2024/02/14 12:04:33;;;;;;;1.75;1.27;;;;;;;;;;4991165;28;20095;-67
2024/02/14 12:06:58;;;;;;;1.55;1.20;;;;;;;;;;5024721;28;20045;-70
2024/02/14 12:09:24;;;;;;;1.88;1.20;;;;;;;;;;5024483;28;20577;-69
2024/02/14 12:11:50;;;;;;;1.52;1.15;;;;;;;;;;5025923;28;20122;-69
2024/02/14 12:14:15;;;;;;;1.50;1.10;;;;;;;;;;5008091;28;20037;-69
2024/02/14 12:16:40;;;;;;;2.17;1.50;;;;;;;;;;5023512;28;20154;-68
2024/02/14 12:19:08;;;;;;;1.42;1.00;;;;;;;;;;5023738;28;20090;-68
2024/02/14 12:21:36;;;;;;;1.33;0.95;;;;;;;;;;5024898;28;20029;-68
2024/02/14 12:24:03;;;;;;;1.77;1.27;;;;;;;;;;5022892;28;20033;-69
2024/02/14 12:26:29;;;;;;;1.60;1.30;;;;;;;;;;5022250;28;20045;-69
2024/02/14 12:28:55;;;;;;;1.65;1.10;;;;;;;;;;5005561;28;20030;-68
2024/02/14 12:31:23;;;;;;;1.90;1.10;;;;;;;;;;5006574;28;20467;-69
2024/02/14 12:33:49;;;;;;;1.50;1.20;;;;;;;;;;5022674;28;20041;-69
2024/02/14 12:36:15;;;;;;;1.95;1.10;;;;;;;;;;5024166;28;20048;-68
2024/02/14 12:38:40;;;;;;;1.83;1.30;;;;;;;;;;5023483;28;20053;-69
2024/02/14 12:41:06;;;;;;;1.70;1.17;;;;;;;;;;5023572;28;20037;-69
2024/02/14 12:43:31;;;;;;;1.55;1.30;;;;;;;;;;5022398;28;20108;-69
2024/02/14 12:45:56;;;;;;;1.58;1.30;;;;;;;;;;5023749;28;20033;-68
2024/02/14 12:48:22;;;;;;;1.75;1.17;;;;;;;;;;5023598;28;20029;-68
2024/02/14 12:50:49;;;;;;;2.17;1.20;;;;;;;;;;5024509;28;20415;-68
2024/02/14 12:53:15;;;;;;;1.40;1.10;;;;;;;;;;5022581;28;20511;-68
2024/02/14 12:55:40;;;;;;;2.17;1.20;;;;;;;;;;5022134;28;20042;-68
2024/02/14 12:58:06;;;;;;;1.95;1.42;;;;;;;;;;5023226;28;20357;-69
2024/02/14 13:00:34;;;;;;;1.50;1.17;;;;;;;;;;5005331;28;20650;-68
2024/02/14 13:03:00;;;;;;;2.00;1.20;;;;;;;;;;5021769;28;20037;-68
2024/02/14 13:05:25;;;;;;;1.55;1.20;;;;;;;;;;5023165;28;20238;-68
2024/02/14 13:07:51;;;;;;;2.10;1.38;;;;;;;;;;5022618;28;20017;-69
2024/02/14 13:10:16;;;;;;;2.35;1.42;;;;;;;;;;5022916;28;20849;-69
2024/02/14 13:12:43;;;;;;;1.65;1.20;;;;;;;;;;5023932;28;20479;-69
2024/02/14 13:15:09;;;;;;;1.90;1.30;;;;;;;;;;5022747;28;20025;-69
2024/02/14 13:17:34;;;;;;;1.48;1.05;;;;;;;;;;5023443;28;20489;-69
2024/02/14 13:19:59;;;;;;;1.55;1.25;;;;;;;;;;5023373;28;20026;-69
2024/02/14 13:22:25;;;;;;;2.13;1.40;;;;;;;;;;5023566;28;20075;-69
2024/02/14 13:24:51;;;;;;;1.70;1.10;;;;;;;;;;5021204;28;20048;-69
2024/02/14 13:27:16;;;;;;;1.63;1.23;;;;;;;;;;5023260;28;20013;-69
2024/02/14 13:29:41;;;;;;;2.20;1.40;;;;;;;;;;5023448;28;20025;-68
2024/02/14 13:32:07;;;;;;;1.75;1.20;;;;;;;;;;5023353;28;20093;-69
2024/02/14 13:34:33;;;;;;;1.85;1.20;;;;;;;;;;5022879;28;20498;-68
2024/02/14 13:36:58;;;;;;;2.40;1.40;;;;;;;;;;5023202;28;20014;-69
2024/02/14 13:39:23;;;;;;;1.98;1.20;;;;;;;;;;5022939;28;20029;-68
2024/02/14 13:41:49;;;;;;;1.92;1.42;;;;;;;;;;5023584;28;20018;-67
2024/02/14 13:44:14;;;;;;;1.48;1.13;;;;;;;;;;5023108;28;20030;-68
2024/02/14 13:46:43;;;;;;;1.65;1.27;;;;;;;;;;5009407;28;20112;-68
2024/02/14 13:49:10;;;;;;;1.47;1.10;;;;;;;;;;5026963;28;20533;-69
2024/02/14 13:51:37;;;;;;;1.50;1.08;;;;;;;;;;5014652;28;20025;-68
2024/02/14 13:54:04;;;;;;;1.83;1.30;;;;;;;;;;5036839;28;20032;-69
2024/02/14 13:56:31;;;;;;;1.83;1.27;;;;;;;;;;5039306;28;20514;-67
2024/02/14 13:58:56;;;;;;;1.48;1.13;;;;;;;;;;5038772;28;20048;-68
2024/02/14 14:01:21;;;;;;;2.00;1.50;;;;;;;;;;5035802;28;20029;-67
2024/02/14 14:03:50;;;;;;;1.80;1.17;;;;;;;;;;5030131;28;20048;-68
2024/02/14 14:06:15;;;;;;;1.80;1.30;;;;;;;;;;5030774;28;20029;-68
2024/02/14 14:08:40;;;;;;;1.63;1.20;;;;;;;;;;5030311;28;20037;-68
2024/02/14 14:11:08;;;;;;;1.77;1.10;;;;;;;;;;5028656;28;20037;-69
2024/02/14 14:13:34;;;;;;;1.75;1.23;;;;;;;;;;5028847;28;20033;-68
2024/02/14 14:16:04;;;;;;;2.00;1.27;;;;;;;;;;5026204;28;20033;-68
2024/02/14 14:18:30;;;;;;;2.13;1.50;;;;;;;;;;5027480;28;20053;-68
2024/02/14 14:20:56;;;;;;;1.85;1.02;;;;;;;;;;5026296;28;20045;-68
2024/02/14 14:23:21;;;;;;;1.80;1.13;;;;;;;;;;5026698;28;20499;-68
2024/02/14 14:25:47;;;;;;;1.67;1.25;;;;;;;;;;5026012;28;20120;-69
2024/02/14 14:28:13;;;;;;;1.58;1.10;;;;;;;;;;5027181;28;20148;-69
2024/02/14 14:30:39;;;;;;;2.03;1.15;;;;;;;;;;5026248;28;20110;-69
2024/02/14 14:33:08;;;;;;;1.40;1.20;;;;;;;;;;5025791;28;20670;-69
2024/02/14 14:35:35;;;;;;;2.85;1.10;;;;;;;;;;5025751;28;20056;-69